createdAt,value
2022-11-27T00:00:49.403Z,86.45
2022-11-27T00:03:18.716Z,86.83
2022-11-27T00:05:53.529Z,86.89
2022-11-27T00:08:21.388Z,86.89
2022-11-27T00:10:49.214Z,86.95
2022-11-27T00:13:17.264Z,87.20
2022-11-27T00:15:45.093Z,87.49
2022-11-27T00:18:13.188Z,87.74
2022-11-27T00:20:42.305Z,87.97
2022-11-27T00:23:10.165Z,87.99
2022-11-27T00:25:37.984Z,88.17
2022-11-27T00:28:06.108Z,87.70
2022-11-27T00:30:33.888Z,87.89
2022-11-27T00:33:01.647Z,87.31
2022-11-27T00:35:29.525Z,87.16
2022-11-27T00:38:01.819Z,86.69
2022-11-27T00:40:29.593Z,86.64
2022-11-27T00:42:57.569Z,86.39
2022-11-27T00:45:25.597Z,85.87
2022-11-27T00:47:53.494Z,86.19
2022-11-27T00:50:21.672Z,86.25
2022-11-27T00:52:49.681Z,85.68
2022-11-27T00:55:19.076Z,85.34
2022-11-27T00:57:46.903Z,85.46
2022-11-27T01:00:16.094Z,85.19
2022-11-27T01:02:44.737Z,85.32
2022-11-27T01:05:12.675Z,85.77
2022-11-27T01:07:40.598Z,85.35
2022-11-27T01:10:09.898Z,85.73
2022-11-27T01:12:39.108Z,85.19
2022-11-27T01:15:07.887Z,85.86
2022-11-27T01:17:35.702Z,85.75
2022-11-27T01:20:03.572Z,85.52
2022-11-27T01:22:31.422Z,85.08
2022-11-27T01:24:59.202Z,85.17
2022-11-27T01:27:27.070Z,85.46
2022-11-27T01:29:56.293Z,85.03
2022-11-27T01:32:24.095Z,85.28
2022-11-27T01:34:54.315Z,85.11
2022-11-27T01:37:22.243Z,84.58
2022-11-27T01:39:50.080Z,85.01
2022-11-27T01:42:17.925Z,85.15
2022-11-27T01:44:54.766Z,84.33
2022-11-27T01:47:34.966Z,84.26
2022-11-27T01:50:12.331Z,84.20
2022-11-27T01:52:44.546Z,83.95
2022-11-27T01:55:18.878Z,84.47
2022-11-27T01:57:49.487Z,84.42
2022-11-27T02:00:19.191Z,84.31
2022-11-27T02:02:48.995Z,84.03
2022-11-27T02:05:19.514Z,84.02
2022-11-27T02:07:48.772Z,84.00
2022-11-27T02:10:17.798Z,83.76
2022-11-27T02:12:53.444Z,83.99
2022-11-27T02:15:27.586Z,83.94
2022-11-27T02:18:07.427Z,84.41
2022-11-27T02:20:45.284Z,84.66
2022-11-27T02:23:40.438Z,84.06
2022-11-27T02:26:26.470Z,84.11
2022-11-27T02:29:05.154Z,84.49
2022-11-27T02:31:39.727Z,84.19
2022-11-27T02:34:16.047Z,84.13
2022-11-27T02:36:51.262Z,84.15
2022-11-27T02:39:24.046Z,84.19
2022-11-27T02:41:57.895Z,84.49
2022-11-27T02:44:30.788Z,84.14
2022-11-27T02:46:58.802Z,83.69
2022-11-27T02:49:27.564Z,83.40
2022-11-27T02:52:00.132Z,84.20
2022-11-27T02:54:31.210Z,83.74
2022-11-27T02:57:03.645Z,83.94
2022-11-27T02:59:36.019Z,83.77
2022-11-27T03:02:08.612Z,83.53
2022-11-27T03:04:40.400Z,83.51
2022-11-27T03:07:15.636Z,83.53
2022-11-27T03:09:47.235Z,83.13
2022-11-27T03:12:17.914Z,83.65
2022-11-27T03:14:48.561Z,84.18
2022-11-27T03:17:30.331Z,83.72
2022-11-27T03:20:02.212Z,84.13
2022-11-27T03:22:33.068Z,84.01
2022-11-27T03:25:00.994Z,83.77
2022-11-27T03:27:33.569Z,83.77
2022-11-27T03:30:06.922Z,83.64
2022-11-27T03:32:34.993Z,83.45
2022-11-27T03:35:03.122Z,83.07
2022-11-27T03:37:31.011Z,83.31
2022-11-27T03:39:58.844Z,83.94
2022-11-27T03:42:32.007Z,83.84
2022-11-27T03:45:09.174Z,83.41
2022-11-27T03:47:55.563Z,82.66
2022-11-27T03:50:34.336Z,82.69
2022-11-27T03:53:11.801Z,83.95
2022-11-27T03:55:49.404Z,84.20
2022-11-27T03:58:24.441Z,84.12
2022-11-27T04:00:54.340Z,83.77
2022-11-27T04:03:25.135Z,83.11
2022-11-27T04:05:53.435Z,82.53
2022-11-27T04:08:21.607Z,83.09
2022-11-27T04:10:49.670Z,83.03
2022-11-27T04:13:17.671Z,82.96
2022-11-27T04:15:45.481Z,83.08
2022-11-27T04:18:14.784Z,82.76
2022-11-27T04:20:42.713Z,83.40
2022-11-27T04:23:11.227Z,82.40
2022-11-27T04:25:39.059Z,82.75
2022-11-27T04:28:06.930Z,82.89
2022-11-27T04:30:35.142Z,82.34
2022-11-27T04:33:03.026Z,81.98
2022-11-27T04:35:32.375Z,82.26
2022-11-27T04:38:00.254Z,82.41
2022-11-27T04:40:28.438Z,82.41
2022-11-27T04:42:56.230Z,82.32
2022-11-27T04:45:24.050Z,82.29
2022-11-27T04:47:51.873Z,81.86
2022-11-27T04:50:19.902Z,81.46
2022-11-27T04:52:49.052Z,82.28
2022-11-27T04:55:17.207Z,82.16
2022-11-27T04:57:44.998Z,82.39
2022-11-27T05:00:13.827Z,81.95
2022-11-27T05:02:41.915Z,82.17
2022-11-27T05:05:10.344Z,81.89
2022-11-27T05:07:38.555Z,82.15
2022-11-27T05:10:09.536Z,81.85
2022-11-27T05:12:37.438Z,81.92
2022-11-27T05:15:06.025Z,82.07
2022-11-27T05:17:33.860Z,81.79
2022-11-27T05:20:01.750Z,81.88
2022-11-27T05:22:29.651Z,81.38
2022-11-27T05:24:57.526Z,81.81
2022-11-27T05:27:26.739Z,81.59
2022-11-27T05:29:54.567Z,81.43
2022-11-27T05:32:22.401Z,81.30
2022-11-27T05:34:50.458Z,81.43
2022-11-27T05:37:19.932Z,81.38
2022-11-27T05:39:48.134Z,81.32
2022-11-27T05:42:15.982Z,81.29
2022-11-27T05:44:45.254Z,81.19
2022-11-27T05:47:13.054Z,80.93
2022-11-27T05:49:40.826Z,81.30
2022-11-27T05:52:08.620Z,81.67
2022-11-27T05:54:36.548Z,81.30
2022-11-27T05:57:04.419Z,80.47
2022-11-27T05:59:32.270Z,81.18
2022-11-27T06:02:01.562Z,80.76
2022-11-27T06:04:29.390Z,81.51
2022-11-27T06:06:57.180Z,81.67
2022-11-27T06:09:25.326Z,82.04
2022-11-27T06:11:53.135Z,82.56
2022-11-27T06:14:21.075Z,82.10
2022-11-27T06:16:48.961Z,82.35
2022-11-27T06:19:18.160Z,82.34
2022-11-27T06:21:46.522Z,82.45
2022-11-27T06:24:14.486Z,82.50
2022-11-27T06:26:42.376Z,82.22
2022-11-27T06:29:11.100Z,82.22
2022-11-27T06:31:39.110Z,82.35
2022-11-27T06:34:07.714Z,81.67
2022-11-27T06:36:39.980Z,81.69
2022-11-27T06:39:09.318Z,81.17
2022-11-27T06:41:37.504Z,81.27
2022-11-27T06:44:05.687Z,81.30
2022-11-27T06:46:33.547Z,81.36
2022-11-27T06:49:01.969Z,80.87
2022-11-27T06:51:31.845Z,80.92
2022-11-27T06:54:02.427Z,81.46
2022-11-27T06:56:31.889Z,81.59
2022-11-27T06:59:01.999Z,82.48
2022-11-27T07:01:32.054Z,82.58
2022-11-27T07:04:00.391Z,82.13
2022-11-27T07:06:29.130Z,83.00
2022-11-27T07:08:57.183Z,83.03
2022-11-27T07:11:28.252Z,82.81
2022-11-27T07:13:57.998Z,83.19
2022-11-27T07:16:26.676Z,83.63
2022-11-27T07:18:56.394Z,84.47
2022-11-27T07:21:24.584Z,84.45
2022-11-27T07:23:52.588Z,84.86
2022-11-27T07:26:22.730Z,85.02
2022-11-27T07:28:52.610Z,84.88
2022-11-27T07:31:22.882Z,84.30
2022-11-27T07:33:52.431Z,83.84
2022-11-27T07:36:22.224Z,83.31
2022-11-27T07:38:50.433Z,82.99
2022-11-27T07:41:18.840Z,82.96
2022-11-27T07:43:47.329Z,82.89
2022-11-27T07:46:19.566Z,83.33
2022-11-27T07:48:47.796Z,83.18
2022-11-27T07:51:18.003Z,82.91
2022-11-27T07:53:46.229Z,82.78
2022-11-27T07:56:16.584Z,82.73
2022-11-27T07:58:44.646Z,81.98
2022-11-27T08:01:17.357Z,81.77
2022-11-27T08:03:47.184Z,81.28
2022-11-27T08:06:17.104Z,81.33
2022-11-27T08:08:45.456Z,81.28
2022-11-27T08:11:18.288Z,80.80
2022-11-27T08:13:46.187Z,80.76
2022-11-27T08:16:14.047Z,80.31
2022-11-27T08:18:41.967Z,80.86
2022-11-27T08:21:11.265Z,80.42
2022-11-27T08:23:41.435Z,80.52
2022-11-27T08:26:10.916Z,80.41
2022-11-27T08:28:39.727Z,80.50
2022-11-27T08:31:09.320Z,80.34
2022-11-27T08:33:37.333Z,80.14
2022-11-27T08:36:08.994Z,80.23
2022-11-27T08:38:40.227Z,79.60
2022-11-27T08:41:09.512Z,79.70
2022-11-27T08:43:37.603Z,79.80
2022-11-27T08:46:06.284Z,78.97
2022-11-27T08:48:34.733Z,79.47
2022-11-27T08:51:06.593Z,79.49
2022-11-27T08:53:34.545Z,79.47
2022-11-27T08:56:08.848Z,79.16
2022-11-27T08:58:40.966Z,79.48
2022-11-27T09:01:13.624Z,79.17
2022-11-27T09:03:41.686Z,78.98
2022-11-27T09:06:11.634Z,78.86
2022-11-27T09:08:40.006Z,78.88
2022-11-27T09:11:10.448Z,78.93
2022-11-27T09:13:40.360Z,78.99
2022-11-27T09:16:11.195Z,79.24
2022-11-27T09:18:39.525Z,79.14
2022-11-27T09:21:09.910Z,79.72
2022-11-27T09:23:38.540Z,80.37
2022-11-27T09:26:11.562Z,79.84
2022-11-27T09:28:41.138Z,79.67
2022-11-27T09:31:13.356Z,79.74
2022-11-27T09:33:42.595Z,80.27
2022-11-27T09:36:11.899Z,80.13
2022-11-27T09:38:40.158Z,80.00
2022-11-27T09:41:36.494Z,80.52
2022-11-27T09:44:13.009Z,80.13
2022-11-27T09:46:43.603Z,80.29
2022-11-27T09:49:18.418Z,80.09
2022-11-27T09:51:53.533Z,80.36
2022-11-27T09:54:26.111Z,79.72
2022-11-27T09:56:56.998Z,79.63
2022-11-27T09:59:30.299Z,79.71
2022-11-27T10:01:58.340Z,79.71
2022-11-27T10:04:26.315Z,79.54
2022-11-27T10:07:10.354Z,78.99
2022-11-27T10:09:53.844Z,79.09
2022-11-27T10:12:33.303Z,79.75
2022-11-27T10:15:08.465Z,79.54
2022-11-27T10:17:42.963Z,79.46
2022-11-27T10:20:20.485Z,79.12
2022-11-27T10:22:56.646Z,79.41
2022-11-27T10:25:31.053Z,79.22
2022-11-27T10:28:13.166Z,79.31
2022-11-27T10:30:48.607Z,79.46
2022-11-27T10:33:21.312Z,78.98
2022-11-27T10:35:50.676Z,78.86
2022-11-27T10:38:22.820Z,78.06
2022-11-27T10:40:55.808Z,78.15
2022-11-27T10:43:26.443Z,78.42
2022-11-27T10:45:58.550Z,77.61
2022-11-27T10:48:27.802Z,77.89
2022-11-27T10:50:55.615Z,77.77
2022-11-27T10:53:28.200Z,77.74
2022-11-27T10:56:06.053Z,77.11
2022-11-27T10:58:41.056Z,76.90
2022-11-27T11:01:10.511Z,76.06
2022-11-27T11:03:38.891Z,76.14
2022-11-27T11:06:23.187Z,75.28
2022-11-27T11:09:02.348Z,74.83
2022-11-27T11:11:30.242Z,74.17
2022-11-27T11:13:59.402Z,74.30
2022-11-27T11:16:34.864Z,74.35
2022-11-27T11:19:03.765Z,73.17
2022-11-27T11:21:34.921Z,73.15
2022-11-27T11:24:05.256Z,72.82
2022-11-27T11:26:37.067Z,72.82
2022-11-27T11:29:26.573Z,72.39
2022-11-27T11:31:56.203Z,72.63
2022-11-27T11:34:26.923Z,72.32
2022-11-27T11:36:57.579Z,72.45
2022-11-27T11:39:28.181Z,72.21
2022-11-27T11:41:56.105Z,71.17
2022-11-27T11:44:38.891Z,71.15
2022-11-27T11:47:07.377Z,71.45
2022-11-27T11:49:36.971Z,70.91
2022-11-27T11:52:21.876Z,70.70
2022-11-27T11:55:01.407Z,71.01
2022-11-27T11:58:10.108Z,70.63
2022-11-27T12:01:11.419Z,69.79
2022-11-27T12:03:51.750Z,70.21
2022-11-27T12:06:48.756Z,69.89
2022-11-27T12:09:28.901Z,69.10
2022-11-27T12:12:02.277Z,68.95
2022-11-27T12:14:42.908Z,68.96
2022-11-27T12:17:27.972Z,69.24
2022-11-27T12:20:18.294Z,69.11
2022-11-27T12:23:31.062Z,68.97
2022-11-27T12:26:08.146Z,69.54
2022-11-27T12:28:48.453Z,69.44
2022-11-27T12:31:27.446Z,68.53
2022-11-27T12:34:03.963Z,68.30
2022-11-27T12:36:46.112Z,68.51
2022-11-27T12:39:25.486Z,68.19
2022-11-27T12:42:03.977Z,69.74
2022-11-27T12:44:51.049Z,70.90
2022-11-27T12:47:25.992Z,70.68
2022-11-27T12:49:58.280Z,71.25
2022-11-27T12:52:32.358Z,71.92
2022-11-27T12:55:05.842Z,71.75
2022-11-27T12:57:40.426Z,71.71
2022-11-27T13:00:17.531Z,71.83
2022-11-27T13:02:50.824Z,72.08
2022-11-27T13:05:23.936Z,72.33
2022-11-27T13:07:55.641Z,71.88
2022-11-27T13:10:29.438Z,72.30
2022-11-27T13:13:05.797Z,71.70
2022-11-27T13:15:39.199Z,72.11
2022-11-27T13:18:17.094Z,72.38
2022-11-27T13:20:52.332Z,72.39
2022-11-27T13:23:21.147Z,72.43
2022-11-27T13:25:54.007Z,72.30
2022-11-27T13:28:29.610Z,72.60
2022-11-27T13:31:00.999Z,73.11
2022-11-27T13:33:37.620Z,73.81
2022-11-27T13:36:18.178Z,73.84
2022-11-27T13:38:46.610Z,75.08
2022-11-27T13:41:22.064Z,74.49
2022-11-27T13:43:50.535Z,75.09
2022-11-27T13:46:22.059Z,74.61
2022-11-27T13:48:53.355Z,75.06
2022-11-27T13:51:28.580Z,75.00
2022-11-27T13:54:08.077Z,75.06
2022-11-27T13:56:35.902Z,75.09
2022-11-27T13:59:14.745Z,73.96
2022-11-27T14:01:54.628Z,73.73
2022-11-27T14:04:22.505Z,73.91
2022-11-27T14:06:57.304Z,73.56
2022-11-27T14:09:35.971Z,73.20
2022-11-27T14:12:16.723Z,73.94
2022-11-27T14:14:46.374Z,73.53
2022-11-27T14:17:27.384Z,73.93
2022-11-27T14:20:06.834Z,73.54
2022-11-27T14:23:07.511Z,74.37
2022-11-27T14:25:36.209Z,74.42
2022-11-27T14:28:13.075Z,74.48
2022-11-27T14:30:42.271Z,74.61
2022-11-27T14:33:20.029Z,74.38
2022-11-27T14:35:51.920Z,75.50
2022-11-27T14:38:21.149Z,75.53
2022-11-27T14:40:50.495Z,75.97
2022-11-27T14:43:20.431Z,75.96
2022-11-27T14:45:50.775Z,76.10
2022-11-27T14:48:24.652Z,76.22
2022-11-27T14:50:54.838Z,76.43
2022-11-27T14:53:26.021Z,77.06
2022-11-27T14:55:55.786Z,76.53
2022-11-27T14:58:26.859Z,77.57
2022-11-27T15:01:01.249Z,77.17
2022-11-27T15:03:29.878Z,77.66
2022-11-27T15:06:00.079Z,77.94
2022-11-27T15:08:32.822Z,78.41
2022-11-27T15:11:02.626Z,78.36
2022-11-27T15:13:32.277Z,78.19
2022-11-27T15:16:04.950Z,78.24
2022-11-27T15:18:37.095Z,78.34
2022-11-27T15:21:11.508Z,78.40
2022-11-27T15:23:45.986Z,79.21
2022-11-27T15:26:19.950Z,78.55
2022-11-27T15:28:53.256Z,78.30
2022-11-27T15:31:27.429Z,78.91
2022-11-27T15:33:57.363Z,79.46
2022-11-27T15:36:25.973Z,78.89
2022-11-27T15:39:06.496Z,78.94
2022-11-27T15:41:37.369Z,78.73
2022-11-27T15:44:10.099Z,78.87
2022-11-27T15:46:37.995Z,79.30
2022-11-27T15:49:09.537Z,79.09
2022-11-27T15:51:37.400Z,79.48
2022-11-27T15:54:06.691Z,79.53
2022-11-27T15:56:34.609Z,79.34
2022-11-27T15:59:02.404Z,79.59
2022-11-27T16:01:30.366Z,79.85
2022-11-27T16:03:58.730Z,80.13
2022-11-27T16:06:26.802Z,79.70
2022-11-27T16:08:56.151Z,80.56
2022-11-27T16:11:26.653Z,80.41
2022-11-27T16:13:54.543Z,80.62
2022-11-27T16:16:23.361Z,80.07
2022-11-27T16:18:51.327Z,80.26
2022-11-27T16:21:19.645Z,80.20
2022-11-27T16:23:47.443Z,80.23
2022-11-27T16:26:15.715Z,80.81
2022-11-27T16:28:45.053Z,80.74
2022-11-27T16:31:14.968Z,80.79
2022-11-27T16:33:43.446Z,80.96
2022-11-27T16:36:14.455Z,81.18
2022-11-27T16:38:43.340Z,81.20
2022-11-27T16:41:13.917Z,81.24
2022-11-27T16:43:45.627Z,81.22
2022-11-27T16:46:16.126Z,81.29
2022-11-27T16:48:45.009Z,81.10
2022-11-27T16:51:15.965Z,81.01
2022-11-27T16:53:45.750Z,81.03
2022-11-27T16:56:17.368Z,81.21
2022-11-27T16:58:48.204Z,81.40
2022-11-27T17:01:19.878Z,81.55
2022-11-27T17:03:48.210Z,81.40
2022-11-27T17:06:17.850Z,80.86
2022-11-27T17:08:45.743Z,81.03
2022-11-27T17:11:15.950Z,81.22
2022-11-27T17:13:44.263Z,81.27
2022-11-27T17:16:13.777Z,80.85
2022-11-27T17:18:45.566Z,81.02
2022-11-27T17:21:18.181Z,81.01
2022-11-27T17:23:47.011Z,81.02
2022-11-27T17:26:16.864Z,80.34
2022-11-27T17:28:45.267Z,80.82
2022-11-27T17:31:17.443Z,80.92
2022-11-27T17:33:46.017Z,81.02
2022-11-27T17:36:14.651Z,80.66
2022-11-27T17:38:43.050Z,81.04
2022-11-27T17:41:13.732Z,81.09
2022-11-27T17:43:42.820Z,80.92
2022-11-27T17:46:12.196Z,80.64
2022-11-27T17:48:42.307Z,80.27
2022-11-27T17:51:11.056Z,80.69
2022-11-27T17:53:39.212Z,80.69
2022-11-27T17:56:10.934Z,80.97
2022-11-27T17:58:39.987Z,81.52
2022-11-27T18:01:15.891Z,81.72
2022-11-27T18:03:47.135Z,81.87
2022-11-27T18:06:17.440Z,81.20
2022-11-27T18:08:46.874Z,81.12
2022-11-27T18:11:18.174Z,80.83
2022-11-27T18:13:46.815Z,80.51
2022-11-27T18:16:16.614Z,79.80
2022-11-27T18:18:45.851Z,80.20
2022-11-27T18:21:18.346Z,80.04
2022-11-27T18:24:21.532Z,79.61
2022-11-27T18:29:23.914Z,78.71
2022-11-27T18:31:53.254Z,78.58
2022-11-27T18:34:22.511Z,79.09
2022-11-27T18:36:50.471Z,78.86
2022-11-27T18:39:18.559Z,79.23
2022-11-27T18:41:46.369Z,78.77
2022-11-27T18:44:14.236Z,78.61
2022-11-27T18:46:42.114Z,78.42
2022-11-27T18:49:09.969Z,78.59
2022-11-27T18:51:39.563Z,79.08
2022-11-27T18:54:08.636Z,78.96
2022-11-27T18:56:37.412Z,78.90
2022-11-27T18:59:06.969Z,78.95
2022-11-27T19:01:41.915Z,78.75
2022-11-27T19:04:11.493Z,78.51
2022-11-27T19:06:42.536Z,78.41
2022-11-27T19:09:12.107Z,78.83
2022-11-27T19:11:40.575Z,78.63
2022-11-27T19:14:09.846Z,78.86
2022-11-27T19:16:43.735Z,79.19
2022-11-27T19:19:52.169Z,78.98
2022-11-27T19:22:03.411Z,79.24
2022-11-27T19:24:31.498Z,79.54
2022-11-27T19:26:59.440Z,79.25
2022-11-27T19:29:27.402Z,79.08
2022-11-27T19:31:58.127Z,78.98
2022-11-27T19:34:26.157Z,78.96
2022-11-27T19:36:54.360Z,78.61
2022-11-27T19:39:23.860Z,78.82
2022-11-27T19:41:52.251Z,78.59
2022-11-27T19:44:20.446Z,78.21
2022-11-27T19:46:49.111Z,78.69
2022-11-27T19:49:18.733Z,78.73
2022-11-27T19:51:47.740Z,78.47
2022-11-27T19:54:19.142Z,79.06
2022-11-27T19:56:48.402Z,78.33
2022-11-27T19:59:17.636Z,78.38
2022-11-27T20:01:48.047Z,78.33
2022-11-27T20:04:16.264Z,78.80
2022-11-27T20:06:45.281Z,78.59
2022-11-27T20:09:15.139Z,78.62
2022-11-27T20:11:43.902Z,78.86
2022-11-27T20:14:14.263Z,78.90
2022-11-27T20:16:42.214Z,78.82
2022-11-27T20:19:10.087Z,79.35
2022-11-27T20:21:40.036Z,79.33
2022-11-27T20:24:08.044Z,79.05
2022-11-27T20:26:41.283Z,79.50
2022-11-27T20:29:12.012Z,79.20
2022-11-27T20:31:44.709Z,79.00
2022-11-27T20:34:19.127Z,79.01
2022-11-27T20:36:48.853Z,79.19
2022-11-27T20:39:21.261Z,78.92
2022-11-27T20:41:52.163Z,78.97
2022-11-27T20:44:22.191Z,79.21
2022-11-27T20:46:52.226Z,78.81
2022-11-27T20:49:20.764Z,78.64
2022-11-27T20:51:50.727Z,79.39
2022-11-27T20:54:23.126Z,79.66
2022-11-27T20:56:51.501Z,80.17
2022-11-27T20:59:20.017Z,81.05
2022-11-27T21:01:48.591Z,82.24
2022-11-27T21:04:24.499Z,82.95
2022-11-27T21:06:54.017Z,83.63
2022-11-27T21:09:22.267Z,83.17
2022-11-27T21:11:50.772Z,83.38
2022-11-27T21:14:21.031Z,82.94
2022-11-27T21:16:51.238Z,82.57
2022-11-27T21:19:22.706Z,82.76
2022-11-27T21:21:51.479Z,82.81
2022-11-27T21:24:20.956Z,83.39
2022-11-27T21:26:49.781Z,83.50
2022-11-27T21:29:18.168Z,83.24
2022-11-27T21:31:47.400Z,82.94
2022-11-27T21:34:16.781Z,82.27
2022-11-27T21:36:46.634Z,81.67
2022-11-27T21:39:20.464Z,82.10
2022-11-27T21:41:49.369Z,81.37
2022-11-27T21:44:19.770Z,81.31
2022-11-27T21:46:48.404Z,80.55
2022-11-27T21:49:19.684Z,80.57
2022-11-27T21:51:52.192Z,80.53
2022-11-27T21:54:23.459Z,80.64
2022-11-27T21:56:52.679Z,80.79
2022-11-27T21:59:20.937Z,80.24
2022-11-27T22:01:48.963Z,80.57
2022-11-27T22:04:17.549Z,80.37
2022-11-27T22:06:45.715Z,80.29
2022-11-27T22:09:15.964Z,79.99
2022-11-27T22:11:45.495Z,80.06
2022-11-27T22:14:15.046Z,80.14
2022-11-27T22:16:46.210Z,79.78
2022-11-27T22:19:16.252Z,79.80
2022-11-27T22:21:45.021Z,80.10
2022-11-27T22:24:19.273Z,79.74
2022-11-27T22:26:51.596Z,79.91
2022-11-27T22:29:20.476Z,80.26
2022-11-27T22:31:48.588Z,79.99
2022-11-27T22:34:17.061Z,80.10
2022-11-27T22:36:46.022Z,80.21
2022-11-27T22:39:16.101Z,79.85
2022-11-27T22:41:45.332Z,79.85
2022-11-27T22:44:16.925Z,79.83
2022-11-27T22:46:45.328Z,79.30
2022-11-27T22:49:15.978Z,79.57
2022-11-27T22:51:45.018Z,79.87
2022-11-27T22:54:16.953Z,79.89
2022-11-27T22:56:46.501Z,79.59
2022-11-27T22:59:34.489Z,79.11
2022-11-27T23:02:06.812Z,79.15
2022-11-27T23:04:36.900Z,79.78
2022-11-27T23:07:05.714Z,80.20
2022-11-27T23:09:35.400Z,80.12
2022-11-27T23:12:03.661Z,80.41
2022-11-27T23:14:31.466Z,79.99
2022-11-27T23:16:59.986Z,79.86
2022-11-27T23:19:27.919Z,80.32
2022-11-27T23:21:55.930Z,80.73
2022-11-27T23:24:26.668Z,80.20
2022-11-27T23:26:55.929Z,80.64
2022-11-27T23:29:24.278Z,81.18
2022-11-27T23:31:52.207Z,81.24
2022-11-27T23:34:20.058Z,81.32
2022-11-27T23:36:48.077Z,81.44
2022-11-27T23:39:16.111Z,81.49
2022-11-27T23:41:44.575Z,81.17
2022-11-27T23:44:13.710Z,81.50
2022-11-27T23:46:41.537Z,80.90
2022-11-27T23:49:09.502Z,80.73
2022-11-27T23:51:37.557Z,81.01
2022-11-27T23:54:09.087Z,80.57
2022-11-27T23:56:37.630Z,80.52
2022-11-27T23:59:06.322Z,80.06
